Time;durP1;ratioP1;P1;durP2;ratioP2;P2;SDS_P1;SDS_P2;PMS_P1;PMS_P2;Temp;Humidity;BMP_temperature;BMP_pressure;BME280_temperature;BME280_humidity;BME280_pressure;Samples;Min_cycle;Max_cycle;Signal;HPM_P1;HPM_P2
2023/06/26 00:00:34;;;;;;;8.13;6.65;;;23.20;38.10;;;25.10;31.51;97561.41;4952676;29;20054;-49
2023/06/26 00:03:02;;;;;;;8.15;7.28;;;23.20;38.20;;;25.05;31.63;97558.66;4954504;29;20083;-47
2023/06/26 00:05:30;;;;;;;8.80;7.53;;;23.20;38.40;;;24.99;31.89;97559.69;4954296;29;20043;-49
2023/06/26 00:08:00;;;;;;;7.85;6.90;;;23.00;38.70;;;24.92;32.07;97551.69;4954556;28;20039;-50
2023/06/26 00:10:28;;;;;;;8.60;7.35;;;22.90;39.30;;;24.83;32.43;97546.97;4954339;28;20043;-49
2023/06/26 00:12:55;;;;;;;12.18;8.00;;;22.80;39.80;;;24.76;32.48;97553.44;4951948;29;20522;-49
2023/06/26 00:15:24;;;;;;;8.40;7.22;;;22.70;40.40;;;24.66;32.71;97552.47;4954377;29;20054;-52
2023/06/26 00:17:51;;;;;;;9.20;7.57;;;22.60;40.40;;;24.58;33.08;97558.38;4953823;29;20043;-49
2023/06/26 00:20:19;;;;;;;8.27;6.82;;;22.40;40.90;;;24.49;33.18;97556.09;4953817;29;20418;-51
2023/06/26 00:22:46;;;;;;;9.30;6.85;;;22.30;41.20;;;24.43;33.31;97558.97;4954286;29;20423;-50
2023/06/26 00:25:14;;;;;;;7.95;6.93;;;22.30;41.60;;;24.33;33.48;97565.94;4953922;29;20035;-51
2023/06/26 00:27:42;;;;;;;7.55;6.63;;;22.10;42.00;;;24.28;33.64;97555.00;4953891;28;20055;-48
2023/06/26 00:30:11;;;;;;;11.65;7.93;;;22.10;42.10;;;24.22;33.75;97549.75;4952093;29;20427;-50
2023/06/26 00:32:38;;;;;;;9.35;6.75;;;22.10;42.30;;;24.17;33.97;97550.47;4952396;28;20051;-53
2023/06/26 00:35:06;;;;;;;10.40;6.95;;;22.10;42.30;;;24.14;34.17;97551.00;4952720;28;20058;-48
2023/06/26 00:37:34;;;;;;;9.18;7.28;;;22.10;42.30;;;24.11;34.12;97546.88;4953664;29;20422;-51
2023/06/26 00:40:04;;;;;;;7.80;6.85;;;22.10;42.50;;;24.10;34.03;97552.59;4936563;28;20043;-52
2023/06/26 00:42:33;;;;;;;7.93;7.05;;;22.10;42.40;;;24.04;34.47;97554.41;4953362;29;20050;-48
2023/06/26 00:45:01;;;;;;;10.82;6.95;;;22.00;42.70;;;23.97;34.61;97551.84;4951974;28;20057;-48
2023/06/26 00:47:29;;;;;;;9.80;7.55;;;22.00;42.80;;;23.95;34.49;97550.47;4953358;29;20070;-50
2023/06/26 00:49:57;;;;;;;8.80;6.72;;;22.00;42.90;;;23.94;34.46;97544.19;4936135;29;20066;-52
2023/06/26 00:52:25;;;;;;;10.05;7.47;;;22.00;43.60;;;23.95;34.73;97545.03;4953731;29;20042;-51
2023/06/26 00:54:55;;;;;;;9.35;7.57;;;22.00;43.70;;;23.93;34.72;97544.44;4936480;29;20365;-48
2023/06/26 00:57:22;;;;;;;8.45;7.18;;;22.00;42.80;;;23.93;34.50;97534.38;4952845;29;20047;-50
2023/06/26 00:59:50;;;;;;;10.13;6.85;;;22.10;42.70;;;23.94;34.31;97540.63;4920358;28;20195;-51
2023/06/26 01:02:21;;;;;;;8.52;7.30;;;22.10;42.90;;;23.96;34.71;97538.50;4952372;29;20406;-49
2023/06/26 01:04:52;;;;;;;7.28;6.43;;;22.10;42.50;;;23.97;34.73;97548.31;4953700;29;20518;-47
2023/06/26 01:07:21;;;;;;;7.65;6.60;;;22.20;42.30;;;23.98;34.77;97544.50;4953555;28;20054;-49
2023/06/26 01:09:49;;;;;;;9.55;6.82;;;22.30;42.30;;;23.97;34.56;97540.97;4936516;29;20046;-51
2023/06/26 01:12:18;;;;;;;9.18;8.18;;;22.20;42.30;;;23.96;34.80;97533.91;4936750;29;20494;-50
2023/06/26 01:14:49;;;;;;;8.48;7.07;;;22.10;42.50;;;23.94;34.70;97541.47;4952026;29;20047;-53
2023/06/26 01:17:18;;;;;;;8.10;6.35;;;22.10;42.70;;;23.93;34.72;97539.00;4919819;29;20078;-51
2023/06/26 01:19:46;;;;;;;8.95;7.00;;;22.10;42.80;;;23.91;34.85;97533.81;4936331;29;20047;-53
2023/06/26 01:22:44;;;;;;;7.82;7.03;;;22.10;42.80;;;23.89;34.78;97535.97;4951949;29;20039;-52
2023/06/26 01:25:38;;;;;;;9.38;7.20;;;22.10;43.80;;;23.87;34.83;97535.38;4938058;29;20514;-47
2023/06/26 01:28:10;;;;;;;9.07;6.45;;;22.00;43.90;;;23.84;35.07;97535.88;4945083;29;20028;-52
2023/06/26 01:30:44;;;;;;;7.90;7.10;;;21.90;43.40;;;23.80;35.36;97532.00;4951531;29;20066;-49
2023/06/26 01:33:13;;;;;;;9.40;7.25;;;21.90;44.00;;;23.77;35.02;97535.22;4920219;29;20070;-52
2023/06/26 01:35:41;;;;;;;8.95;6.55;;;21.80;43.50;;;23.73;35.11;97528.59;4935522;29;20506;-46
2023/06/26 01:38:20;;;;;;;9.07;7.40;;;21.80;43.40;;;23.66;35.58;97522.53;4935472;29;20047;-50
2023/06/26 01:40:47;;;;;;;8.02;6.88;;;21.70;45.10;;;23.61;35.60;97525.97;4951600;28;20530;-48
2023/06/26 01:43:48;;;;;;;8.88;7.75;;;21.70;44.30;;;23.57;35.60;97524.84;4952925;29;20561;-47
2023/06/26 01:46:24;;;;;;;8.85;7.05;;;21.70;45.20;;;23.57;35.33;97519.41;4932560;29;20410;-50
2023/06/26 01:49:14;;;;;;;9.07;6.70;;;21.70;44.50;;;23.55;35.57;97521.53;4935904;29;20419;-52
2023/06/26 01:51:48;;;;;;;8.68;7.18;;;21.70;45.20;;;23.54;35.52;97519.91;4935594;28;20051;-48
2023/06/26 01:54:20;;;;;;;9.00;7.68;;;21.70;44.20;;;23.53;35.84;97512.81;4922898;29;20043;-47
2023/06/26 01:56:52;;;;;;;8.07;7.03;;;21.70;44.40;;;23.51;35.84;97521.22;4940037;29;20043;-53
2023/06/26 01:59:22;;;;;;;9.75;6.90;;;21.70;44.50;;;23.50;35.82;97519.59;4952481;28;20055;-50
2023/06/26 02:01:49;;;;;;;8.00;7.20;;;21.60;44.20;;;23.48;35.85;97521.72;4923847;29;20051;-50
2023/06/26 02:04:17;;;;;;;9.27;7.95;;;21.60;44.30;;;23.45;35.72;97515.97;4939494;29;20055;-50
2023/06/26 02:06:45;;;;;;;9.38;7.00;;;21.60;44.40;;;23.43;36.21;97516.19;4954792;29;20052;-52
2023/06/26 02:09:12;;;;;;;8.55;6.38;;;21.60;44.50;;;23.39;36.10;97515.88;4954961;28;20047;-49
2023/06/26 02:11:40;;;;;;;8.50;6.65;;;21.50;44.70;;;23.35;36.08;97520.16;4955171;29;20507;-48
2023/06/26 02:14:09;;;;;;;7.80;6.50;;;21.50;45.00;;;23.30;36.27;97511.94;4954976;29;20499;-50
2023/06/26 02:16:36;;;;;;;7.88;6.88;;;21.40;44.90;;;23.27;36.22;97519.75;4946610;29;20404;-52
2023/06/26 02:19:06;;;;;;;7.72;6.78;;;21.40;45.10;;;23.24;36.24;97522.94;4915087;29;20059;-48
2023/06/26 02:21:35;;;;;;;10.13;7.85;;;21.40;45.20;;;23.20;36.72;97522.59;4955407;29;20066;-51
2023/06/26 02:24:04;;;;;;;8.82;7.20;;;21.30;45.50;;;23.18;36.37;97522.03;4956335;29;20396;-50
2023/06/26 02:26:33;;;;;;;8.93;6.88;;;21.30;45.40;;;23.16;36.51;97521.44;4956356;29;20031;-51
2023/06/26 02:29:00;;;;;;;8.20;6.95;;;21.30;45.50;;;23.13;36.49;97514.63;4954311;29;20046;-49
2023/06/26 02:31:28;;;;;;;7.57;6.20;;;21.20;45.20;;;23.12;36.43;97512.97;4956301;29;20055;-48
2023/06/26 02:33:56;;;;;;;7.50;6.07;;;21.30;45.20;;;23.12;36.32;97512.16;4954130;28;20050;-52
2023/06/26 02:36:23;;;;;;;9.05;6.95;;;21.40;44.80;;;23.13;36.51;97522.78;4956113;29;20039;-51
2023/06/26 02:38:51;;;;;;;8.50;7.20;;;21.40;44.40;;;23.05;36.49;97519.63;4947784;29;20055;-51
2023/06/26 02:41:19;;;;;;;8.73;6.50;;;21.40;44.50;;;23.07;36.27;97514.78;4956040;29;20074;-47
2023/06/26 02:43:47;;;;;;;8.20;6.90;;;21.40;44.10;;;23.08;35.88;97517.25;4953724;29;20511;-51
2023/06/26 02:46:14;;;;;;;7.15;6.20;;;21.50;43.90;;;23.12;35.96;97518.41;4955963;29;20039;-51
2023/06/26 02:48:42;;;;;;;7.97;6.47;;;21.50;43.50;;;23.14;36.02;97515.44;4953646;29;20418;-52
2023/06/26 02:51:10;;;;;;;8.13;6.40;;;21.60;43.30;;;23.15;36.09;97515.22;4938535;29;20525;-47
2023/06/26 02:53:37;;;;;;;8.77;6.80;;;21.60;43.10;;;23.19;35.72;97510.13;4954337;28;20415;-51
2023/06/26 02:56:08;;;;;;;7.18;5.97;;;21.70;43.10;;;23.21;35.79;97507.97;4954301;29;20058;-51
2023/06/26 02:58:36;;;;;;;8.15;6.38;;;21.70;43.00;;;23.24;35.40;97509.38;4954121;29;20047;-47
2023/06/26 03:01:03;;;;;;;8.05;7.18;;;21.70;42.70;;;23.26;35.38;97515.38;4945681;29;20070;-51
2023/06/26 03:03:40;;;;;;;7.55;5.68;;;21.70;42.70;;;23.26;35.79;97510.75;4953850;28;20058;-52
2023/06/26 03:06:10;;;;;;;7.38;6.40;;;21.70;42.90;;;23.27;35.50;97508.88;4939740;28;20054;-51
2023/06/26 03:08:39;;;;;;;6.80;6.07;;;21.70;42.60;;;23.27;35.42;97512.41;4955176;29;20043;-51
2023/06/26 03:11:08;;;;;;;8.82;6.68;;;21.80;42.70;;;23.26;35.53;97509.94;4954853;29;20070;-47
2023/06/26 03:13:37;;;;;;;7.25;5.80;;;21.70;42.60;;;23.27;35.39;97512.41;4950211;28;20043;-53
2023/06/26 03:16:05;;;;;;;8.52;6.47;;;21.70;42.60;;;23.28;35.38;97515.94;4954267;29;20052;-49
2023/06/26 03:18:33;;;;;;;7.97;6.50;;;21.70;42.60;;;23.27;35.38;97517.03;4953466;29;20047;-46
2023/06/26 03:21:00;;;;;;;7.28;6.03;;;21.70;42.70;;;23.26;35.30;97518.09;4948548;29;20414;-51
2023/06/26 03:23:28;;;;;;;10.63;6.50;;;21.60;42.80;;;23.26;35.27;97515.38;4938416;29;20043;-48
2023/06/26 03:25:56;;;;;;;9.90;7.05;;;21.70;42.80;;;23.19;35.66;97513.66;4953787;29;20051;-52
2023/06/26 03:28:27;;;;;;;7.43;6.43;;;21.60;42.90;;;23.15;35.76;97512.50;4953523;29;20047;-51
2023/06/26 03:30:54;;;;;;;9.93;6.72;;;21.50;43.00;;;23.15;35.62;97520.63;4945361;29;20047;-51
2023/06/26 03:33:22;;;;;;;8.85;7.03;;;21.50;43.00;;;23.13;35.63;97522.78;4953353;29;20499;-46
2023/06/26 03:35:50;;;;;;;6.97;5.55;;;21.50;43.00;;;23.15;35.63;97515.22;4953455;28;20395;-48
2023/06/26 03:38:18;;;;;;;7.90;6.63;;;21.50;42.80;;;23.10;35.47;97517.00;4952904;29;20055;-48
2023/06/26 03:40:46;;;;;;;7.65;6.85;;;21.60;42.50;;;23.16;35.24;97522.25;4921964;29;20056;-50
2023/06/26 03:43:14;;;;;;;9.85;6.10;;;21.70;42.30;;;23.19;35.36;97524.50;4945286;29;20043;-50
2023/06/26 03:45:52;;;;;;;9.48;6.28;;;21.70;42.10;;;23.22;35.22;97523.19;4947074;29;20055;-53
2023/06/26 03:48:20;;;;;;;7.07;5.68;;;21.70;42.10;;;23.24;35.24;97528.38;4953186;28;20051;-52
2023/06/26 03:50:48;;;;;;;8.00;5.47;;;21.90;42.00;;;23.28;35.30;97524.09;4952901;29;20050;-51
2023/06/26 03:53:16;;;;;;;6.88;6.00;;;21.90;41.70;;;23.25;35.44;97525.41;4945181;29;20050;-53
2023/06/26 03:55:44;;;;;;;7.97;6.20;;;21.90;41.70;;;23.19;35.32;97529.94;4953422;29;20048;-51
2023/06/26 03:58:11;;;;;;;7.57;6.32;;;21.90;41.80;;;23.21;35.19;97521.56;4954271;29;20208;-48
2023/06/26 04:00:40;;;;;;;7.50;5.30;;;21.80;41.80;;;23.22;35.27;97525.91;4952900;29;20062;-49
2023/06/26 04:03:08;;;;;;;7.38;6.10;;;21.80;41.80;;;23.28;35.03;97521.38;4954481;29;20051;-49
2023/06/26 04:05:37;;;;;;;7.78;5.80;;;21.80;41.60;;;23.35;34.95;97519.34;4953067;29;20055;-51
2023/06/26 04:08:05;;;;;;;7.30;5.57;;;21.90;41.50;;;23.39;34.76;97523.19;4954048;29;20080;-48
2023/06/26 04:10:33;;;;;;;7.10;6.25;;;22.00;41.30;;;23.40;35.19;97524.88;4952713;28;20039;-47
2023/06/26 04:13:00;;;;;;;6.68;5.72;;;22.10;41.20;;;23.43;34.85;97521.63;4952726;29;20079;-48
2023/06/26 04:15:28;;;;;;;7.35;6.00;;;22.10;41.10;;;23.51;34.66;97517.69;4953709;28;20039;-48
2023/06/26 04:17:56;;;;;;;7.82;6.03;;;22.20;41.00;;;23.54;34.92;97519.91;4952879;28;20067;-48
2023/06/26 04:20:23;;;;;;;8.27;5.85;;;22.20;40.80;;;23.56;34.75;97520.50;4954053;29;20494;-47
2023/06/26 04:22:51;;;;;;;8.00;6.13;;;22.30;40.70;;;23.60;34.96;97524.34;4952304;28;20059;-50
2023/06/26 04:25:19;;;;;;;7.10;5.50;;;22.40;40.60;;;23.67;34.57;97529.59;4954089;28;20426;-48
2023/06/26 04:27:47;;;;;;;6.15;5.22;;;22.50;40.40;;;23.76;34.76;97526.22;4953974;29;20499;-47
2023/06/26 04:30:15;;;;;;;7.88;6.25;;;22.60;40.30;;;23.84;34.62;97529.63;4953753;29;20035;-48
2023/06/26 04:32:42;;;;;;;7.45;6.43;;;22.60;40.20;;;23.89;34.51;97530.53;4952938;29;20502;-46
2023/06/26 04:35:10;;;;;;;7.50;5.07;;;22.70;40.00;;;23.95;34.22;97528.72;4952301;29;20051;-47
2023/06/26 04:37:39;;;;;;;5.22;4.70;;;22.70;39.90;;;24.00;34.29;97531.50;4953754;28;20510;-49
2023/06/26 04:40:09;;;;;;;6.13;5.53;;;22.80;39.70;;;24.06;34.11;97532.38;4953481;29;20055;-49
2023/06/26 04:42:38;;;;;;;9.15;6.65;;;22.90;39.80;;;24.12;34.15;97526.78;4953717;29;20462;-50
2023/06/26 04:45:06;;;;;;;7.28;5.93;;;22.90;39.80;;;24.18;34.00;97533.09;4953722;28;20122;-49
2023/06/26 04:47:34;;;;;;;9.15;6.00;;;22.90;39.80;;;24.18;34.14;97531.19;4953656;29;20180;-50
2023/06/26 04:50:02;;;;;;;7.50;6.30;;;22.90;39.90;;;24.22;34.18;97536.97;4953142;29;20043;-49
2023/06/26 04:52:29;;;;;;;7.18;5.80;;;22.90;39.80;;;24.27;34.15;97534.31;4953423;28;20522;-48
2023/06/26 04:54:57;;;;;;;6.20;5.15;;;22.90;39.90;;;24.31;34.10;97532.75;4953614;29;20043;-46
2023/06/26 04:57:24;;;;;;;6.43;5.70;;;23.00;39.90;;;24.35;34.18;97538.50;4953535;28;20046;-48
2023/06/26 04:59:52;;;;;;;8.90;5.97;;;23.00;39.90;;;24.33;34.12;97535.19;4953518;29;20047;-52
2023/06/26 05:02:19;;;;;;;6.50;5.65;;;23.00;39.90;;;24.37;34.07;97534.44;4953375;29;20066;-49
2023/06/26 05:04:48;;;;;;;7.07;5.82;;;23.00;40.90;;;24.41;34.06;97531.19;4953233;29;20047;-49
2023/06/26 05:07:16;;;;;;;7.93;6.28;;;23.00;40.10;;;24.43;34.86;97534.50;4953022;28;20522;-52
2023/06/26 05:09:43;;;;;;;8.23;5.68;;;23.10;41.20;;;24.42;35.37;97539.13;4953021;29;20070;-50
2023/06/26 05:12:12;;;;;;;8.98;6.32;;;23.10;42.00;;;24.44;35.38;97536.97;4953256;28;20422;-51
2023/06/26 05:14:40;;;;;;;7.28;5.97;;;23.00;42.40;;;24.43;35.25;97542.66;4953280;29;20400;-51
2023/06/26 05:17:07;;;;;;;6.38;5.65;;;23.00;42.00;;;24.43;34.95;97537.22;4935931;28;20043;-51
2023/06/26 05:19:35;;;;;;;6.45;5.72;;;23.00;41.40;;;24.43;34.75;97548.94;4952585;29;20043;-49
2023/06/26 05:22:06;;;;;;;6.47;5.45;;;23.10;41.30;;;24.37;34.92;97552.66;4953083;29;20055;-46
2023/06/26 05:24:39;;;;;;;7.32;6.28;;;23.00;41.30;;;24.42;34.83;97543.75;4953233;28;20431;-52
2023/06/26 05:27:07;;;;;;;6.88;5.85;;;23.00;41.60;;;24.45;35.12;97545.97;4919252;29;20510;-51
2023/06/26 05:29:36;;;;;;;9.05;6.25;;;22.90;42.10;;;24.45;35.21;97554.13;4935686;29;20513;-52
2023/06/26 05:32:07;;;;;;;6.97;5.82;;;22.90;42.10;;;24.46;35.56;97553.03;4952789;28;20047;-49
2023/06/26 05:34:35;;;;;;;6.72;5.85;;;22.90;42.60;;;24.47;35.69;97551.97;4935729;29;20050;-48
2023/06/26 05:37:03;;;;;;;7.45;6.13;;;23.00;42.90;;;24.46;35.72;97548.41;4935748;29;20525;-47
2023/06/26 05:39:31;;;;;;;6.45;5.65;;;22.90;43.20;;;24.47;35.78;97541.91;4935536;29;20047;-46
2023/06/26 05:41:59;;;;;;;10.05;6.38;;;22.90;43.30;;;24.49;35.62;97545.19;4935456;29;20419;-47
2023/06/26 05:44:27;;;;;;;8.77;6.30;;;23.00;42.80;;;24.52;36.68;97546.59;4952397;28;20047;-47
2023/06/26 05:46:54;;;;;;;8.98;6.68;;;23.10;44.20;;;24.55;37.69;97546.13;4951284;29;20054;-46
2023/06/26 05:49:22;;;;;;;10.18;7.95;;;23.10;46.10;;;24.55;38.42;97548.84;4958143;28;20047;-50
2023/06/26 05:51:50;;;;;;;15.05;7.72;;;23.20;47.20;;;24.56;38.91;97545.88;4952569;28;20070;-52
2023/06/26 05:54:18;;;;;;;9.88;7.15;;;23.10;47.90;;;24.59;39.17;97541.00;4952332;29;20043;-52
2023/06/26 05:56:47;;;;;;;12.85;7.25;;;23.20;48.00;;;24.62;39.26;97548.63;4952469;29;20070;-48
2023/06/26 05:59:17;;;;;;;7.88;6.65;;;23.30;48.40;;;24.63;39.38;97545.66;4935445;29;20054;-47
2023/06/26 06:01:44;;;;;;;8.88;6.88;;;23.20;48.50;;;24.66;39.32;97545.16;4936028;29;20450;-50
2023/06/26 06:04:12;;;;;;;8.90;7.13;;;23.30;48.40;;;24.67;39.34;97544.06;4952318;29;20055;-49
2023/06/26 06:06:40;;;;;;;9.23;7.30;;;23.30;48.40;;;24.67;39.34;97551.41;4952610;29;20062;-46
2023/06/26 06:09:07;;;;;;;9.23;6.90;;;23.40;48.20;;;24.72;39.48;97549.59;4952421;29;20426;-48
2023/06/26 06:11:35;;;;;;;8.93;7.10;;;23.40;48.10;;;24.75;39.80;97557.22;4952581;28;20499;-48
2023/06/26 06:14:02;;;;;;;12.20;8.00;;;23.50;48.80;;;24.80;39.78;97556.47;4949954;28;20058;-48
2023/06/26 06:16:30;;;;;;;7.97;6.90;;;23.50;48.70;;;24.83;39.94;97555.94;4952377;29;20039;-46
2023/06/26 06:18:58;;;;;;;13.00;7.25;;;23.50;48.90;;;24.89;39.85;97559.56;4951768;29;20062;-48
2023/06/26 06:21:25;;;;;;;11.57;7.75;;;23.60;48.80;;;24.93;39.92;97558.81;4952473;29;20047;-48
2023/06/26 06:23:53;;;;;;;11.10;8.10;;;23.60;49.10;;;24.96;39.94;97555.56;4952198;28;20059;-50
2023/06/26 06:26:20;;;;;;;9.32;7.35;;;23.60;48.90;;;24.99;39.64;97558.84;4952173;29;20047;-51
2023/06/26 06:28:48;;;;;;;10.20;6.85;;;23.70;48.60;;;25.05;39.59;97561.38;4951893;29;20047;-51
2023/06/26 06:31:15;;;;;;;11.20;6.95;;;23.80;48.50;;;25.10;39.61;97563.31;4934976;29;20054;-49
2023/06/26 06:33:43;;;;;;;15.07;7.35;;;23.80;48.30;;;25.14;39.81;97561.72;4952327;29;20632;-48
2023/06/26 06:36:11;;;;;;;11.25;7.88;;;23.90;48.70;;;25.13;39.83;97563.63;4951549;29;20039;-51
2023/06/26 06:38:43;;;;;;;14.32;7.28;;;23.90;48.60;;;25.19;39.61;97571.88;4952434;28;20117;-51
2023/06/26 06:41:12;;;;;;;10.73;6.38;;;23.90;48.20;;;25.23;39.54;97568.38;4965516;28;20042;-50
2023/06/26 06:43:40;;;;;;;14.57;7.65;;;23.90;48.10;;;25.26;39.54;97564.31;4964134;28;20073;-49
2023/06/26 06:46:08;;;;;;;9.88;7.60;;;24.00;48.50;;;25.25;39.71;97568.13;4974238;28;20050;-52
2023/06/26 06:48:35;;;;;;;11.00;7.32;;;24.10;48.20;;;25.33;39.25;97567.66;4955141;29;20051;-50
2023/06/26 06:51:03;;;;;;;10.95;7.97;;;24.10;47.80;;;25.35;39.29;97568.22;4955681;28;20059;-47
2023/06/26 06:53:31;;;;;;;9.98;7.38;;;24.10;47.90;;;25.40;39.53;97573.72;4948045;29;20039;-50
2023/06/26 06:55:59;;;;;;;9.35;7.07;;;24.20;47.90;;;25.44;39.80;97572.13;4955480;29;20054;-52
2023/06/26 06:58:27;;;;;;;8.20;6.63;;;24.30;48.80;;;25.47;39.82;97571.59;4955064;29;20043;-53
2023/06/26 07:00:55;;;;;;;8.32;7.20;;;24.30;48.80;;;25.50;39.90;97568.34;4955518;29;20055;-49
2023/06/26 07:03:23;;;;;;;8.63;6.95;;;24.30;48.90;;;25.52;40.13;97562.66;4955261;29;20055;-49
2023/06/26 07:05:50;;;;;;;8.07;7.25;;;24.30;48.90;;;25.42;40.14;97563.38;4955464;28;20058;-52
2023/06/26 07:08:18;;;;;;;8.73;6.65;;;24.20;48.50;;;25.52;39.71;97566.19;4954736;29;20541;-52
2023/06/26 07:10:46;;;;;;;7.80;6.90;;;24.30;48.40;;;25.53;39.49;97562.41;4955383;28;20055;-48
2023/06/26 07:13:14;;;;;;;9.25;7.50;;;24.30;48.10;;;25.64;39.52;97571.47;4955269;29;20050;-50
2023/06/26 07:15:41;;;;;;;8.60;6.63;;;24.50;47.80;;;25.68;39.03;97572.59;4955206;29;20414;-49
2023/06/26 07:18:09;;;;;;;8.23;6.05;;;24.50;47.40;;;25.64;38.92;97573.38;4953743;28;20590;-47
2023/06/26 07:20:37;;;;;;;7.72;6.50;;;24.60;46.60;;;25.69;38.63;97573.44;4955249;28;20106;-50
2023/06/26 07:23:05;;;;;;;8.20;6.72;;;24.60;46.20;;;25.73;38.41;97567.19;4955218;29;20062;-52
2023/06/26 07:25:33;;;;;;;7.45;6.53;;;24.60;46.00;;;25.76;38.23;97565.03;4954809;29;20047;-50
2023/06/26 07:28:00;;;;;;;9.95;6.38;;;24.60;45.80;;;25.85;37.87;97567.00;4954761;28;20047;-46
2023/06/26 07:30:28;;;;;;;7.18;6.47;;;24.70;45.70;;;25.86;37.93;97565.09;4954920;28;20043;-51
2023/06/26 07:32:55;;;;;;;9.43;6.40;;;24.70;45.30;;;25.86;37.99;97565.09;4955028;29;20047;-51
2023/06/26 07:35:27;;;;;;;7.15;6.15;;;24.80;45.30;;;25.93;37.90;97566.53;4954649;29;20055;-52
2023/06/26 07:37:54;;;;;;;7.63;6.80;;;24.80;44.90;;;26.01;37.35;97561.69;4954647;29;20108;-52
2023/06/26 07:40:22;;;;;;;7.93;6.90;;;24.90;44.20;;;26.03;36.87;97559.50;4937438;29;20058;-50
2023/06/26 07:42:50;;;;;;;9.13;6.90;;;25.10;43.50;;;26.05;37.04;97566.34;4954645;29;20051;-52
2023/06/26 07:45:17;;;;;;;7.22;6.15;;;25.20;42.80;;;26.19;36.75;97568.59;4954504;29;20051;-51
2023/06/26 07:47:45;;;;;;;7.05;6.32;;;25.30;42.80;;;26.26;36.98;97564.56;4954284;28;20055;-50
2023/06/26 07:50:19;;;;;;;7.90;6.22;;;25.40;42.80;;;26.29;36.77;97569.50;4953140;28;20051;-51
2023/06/26 07:52:46;;;;;;;6.53;5.80;;;25.60;42.20;;;26.41;36.50;97569.28;4954706;29;20054;-48
2023/06/26 07:55:14;;;;;;;6.82;6.15;;;25.70;41.90;;;26.44;36.69;97567.91;4954626;29;20047;-48
2023/06/26 07:57:42;;;;;;;7.38;5.70;;;25.80;41.70;;;26.54;36.58;97570.72;4954290;29;20047;-48
2023/06/26 08:00:10;;;;;;;9.25;6.18;;;25.90;41.40;;;26.62;36.44;97574.84;4937277;29;20047;-49
2023/06/26 08:02:40;;;;;;;7.30;5.57;;;26.10;41.40;;;26.73;36.13;97573.81;4957259;28;20062;-51
2023/06/26 08:05:08;;;;;;;7.75;6.30;;;26.20;40.60;;;26.75;35.95;97576.28;4954420;29;20058;-51
2023/06/26 08:07:36;;;;;;;8.32;6.15;;;26.20;40.90;;;26.83;35.96;97579.31;4954016;29;20051;-50
2023/06/26 08:10:05;;;;;;;6.63;6.00;;;26.30;41.10;;;26.92;35.66;97582.34;4954009;29;20518;-50
2023/06/26 08:12:32;;;;;;;7.32;6.63;;;26.30;40.20;;;26.96;35.33;97566.22;4954100;29;20039;-49
2023/06/26 08:15:02;;;;;;;5.72;5.22;;;26.40;40.50;;;27.07;35.38;97570.63;4954294;29;20047;-49
2023/06/26 08:17:30;;;;;;;8.43;6.60;;;26.30;40.80;;;27.10;35.53;97570.09;4947434;28;20035;-49
2023/06/26 08:19:57;;;;;;;10.75;6.40;;;26.30;40.90;;;27.11;35.28;97569.81;4952718;29;20050;-49
2023/06/26 08:22:25;;;;;;;6.05;5.45;;;26.40;40.40;;;27.24;35.06;97564.94;4954048;29;20367;-51
2023/06/26 08:24:53;;;;;;;6.85;6.15;;;26.40;40.50;;;27.28;35.48;97555.94;4953528;29;20047;-53
2023/06/26 08:27:20;;;;;;;6.07;5.35;;;26.60;40.50;;;27.30;34.71;97566.63;4953191;29;20051;-47
2023/06/26 08:29:48;;;;;;;8.57;5.82;;;26.70;39.30;;;27.25;35.40;97559.22;4953636;29;20044;-51
2023/06/26 08:32:15;;;;;;;8.40;5.95;;;26.80;39.90;;;27.29;35.27;97560.31;4953660;29;20054;-51
2023/06/26 08:34:43;;;;;;;6.85;5.40;;;26.90;39.90;;;27.47;34.76;97564.44;4953794;29;20368;-51
2023/06/26 08:37:11;;;;;;;7.88;5.38;;;27.00;39.50;;;27.53;34.32;97561.69;4953738;29;20039;-50
2023/06/26 08:39:38;;;;;;;5.32;4.82;;;27.10;38.10;;;27.68;33.19;97562.53;4953298;28;20051;-52
2023/06/26 08:42:06;;;;;;;6.88;5.45;;;27.30;37.20;;;27.77;33.21;97570.19;4953631;29;20058;-48
2023/06/26 08:44:34;;;;;;;5.38;4.85;;;27.40;36.90;;;27.86;33.10;97566.63;4936769;29;20040;-52
2023/06/26 08:47:05;;;;;;;6.07;5.28;;;27.40;37.40;;;27.85;32.49;97567.69;4953524;29;20051;-51
2023/06/26 08:50:07;;;;;;;6.28;5.63;;;27.50;36.60;;;27.91;32.76;97565.81;4952868;29;20050;-52
2023/06/26 08:52:43;;;;;;;6.47;5.38;;;27.50;36.10;;;28.05;32.72;97568.78;4953846;28;20039;-53
2023/06/26 08:55:14;;;;;;;5.38;4.88;;;27.60;36.20;;;28.03;32.03;97566.34;4952165;28;20042;-50
2023/06/26 08:57:42;;;;;;;5.57;4.97;;;27.70;35.60;;;28.12;32.28;97563.88;4943030;28;20054;-50
2023/06/26 09:00:14;;;;;;;5.40;4.85;;;27.70;36.00;;;28.06;32.78;97568.53;4967452;28;20095;-51
2023/06/26 09:02:42;;;;;;;5.85;5.25;;;27.80;36.10;;;28.27;32.78;97563.03;4952022;28;20043;-48
2023/06/26 09:05:12;;;;;;;10.43;6.38;;;27.80;35.90;;;28.32;32.51;97560.25;4936789;29;20423;-51
2023/06/26 09:07:40;;;;;;;5.63;5.07;;;28.00;36.20;;;28.32;32.33;97568.47;4953014;29;20051;-50
2023/06/26 09:10:09;;;;;;;5.90;5.32;;;28.00;36.00;;;28.38;32.33;97561.06;4952815;28;20039;-48
2023/06/26 09:12:37;;;;;;;5.20;4.70;;;28.00;36.20;;;28.51;32.18;97570.59;4951957;29;20047;-50
2023/06/26 09:15:06;;;;;;;6.32;5.57;;;28.00;35.80;;;28.60;32.27;97568.97;4948173;28;20506;-49
2023/06/26 09:17:41;;;;;;;23.10;8.65;;;28.00;36.60;;;28.32;32.40;97568.47;4936019;28;20517;-49
2023/06/26 09:20:10;;;;;;;7.00;5.40;;;27.90;35.90;;;28.48;32.20;97558.31;4936283;29;20042;-52
2023/06/26 09:22:41;;;;;;;7.47;5.63;;;27.90;36.50;;;28.40;32.86;97567.06;4951116;29;20066;-51
2023/06/26 09:25:09;;;;;;;6.53;5.93;;;28.00;36.60;;;28.50;32.23;97569.78;4953160;29;20051;-50
2023/06/26 09:27:37;;;;;;;6.85;6.15;;;28.10;36.50;;;28.53;32.38;97558.28;4952828;28;20123;-52
2023/06/26 09:30:09;;;;;;;6.45;5.55;;;28.20;36.40;;;28.67;32.13;97564.00;4935674;29;20521;-48
2023/06/26 09:32:36;;;;;;;6.97;6.32;;;28.20;36.40;;;28.79;32.22;97574.59;4953001;29;20058;-53
2023/06/26 09:35:05;;;;;;;7.30;6.50;;;28.20;36.50;;;28.61;32.63;97562.38;4952859;29;20461;-53
2023/06/26 09:37:34;;;;;;;8.38;5.85;;;28.20;36.90;;;28.71;32.87;97570.53;4952510;29;20047;-50
2023/06/26 09:40:02;;;;;;;6.07;5.47;;;28.20;37.00;;;28.85;32.62;97573.50;4935749;29;20047;-52
2023/06/26 09:42:31;;;;;;;7.38;6.63;;;28.30;37.00;;;28.84;33.01;97577.34;4952834;28;20046;-52
2023/06/26 09:44:59;;;;;;;6.45;5.53;;;28.40;37.10;;;28.97;33.01;97575.91;4935668;29;20050;-48
2023/06/26 09:47:30;;;;;;;7.20;6.28;;;28.50;37.50;;;29.06;33.34;97575.03;4952468;29;20047;-50
2023/06/26 09:49:58;;;;;;;10.60;6.70;;;28.60;37.60;;;29.05;33.40;97576.13;4935617;28;20047;-49
2023/06/26 09:52:28;;;;;;;7.97;6.50;;;28.60;37.60;;;29.01;33.04;97571.50;4952712;28;20046;-53
2023/06/26 09:55:09;;;;;;;7.13;6.13;;;28.50;37.80;;;29.11;33.44;97578.84;4952681;28;20040;-48
2023/06/26 09:57:38;;;;;;;7.63;6.82;;;28.50;38.20;;;29.09;33.86;97576.38;4951878;29;20078;-51
2023/06/26 10:00:08;;;;;;;7.97;7.10;;;28.50;38.60;;;29.06;33.90;97576.94;4952370;29;20050;-46
2023/06/26 10:02:38;;;;;;;8.10;6.43;;;28.60;38.50;;;28.99;33.60;97576.44;4936895;29;20051;-49
2023/06/26 10:05:06;;;;;;;9.40;7.72;;;28.50;38.10;;;29.04;33.71;97577.25;4952709;28;20050;-48
2023/06/26 10:07:37;;;;;;;7.28;6.60;;;28.50;38.40;;;29.21;33.97;97571.41;4952351;29;20047;-48
2023/06/26 10:10:07;;;;;;;6.97;6.22;;;28.60;38.60;;;29.37;33.67;97574.03;4952290;29;20047;-51
2023/06/26 10:12:35;;;;;;;7.30;5.97;;;28.70;38.60;;;29.34;33.70;97571.88;4952437;29;20043;-52
2023/06/26 10:15:06;;;;;;;7.05;6.15;;;28.70;38.20;;;29.43;32.82;97571.00;4955392;28;20043;-50
2023/06/26 10:17:37;;;;;;;9.35;5.22;;;28.80;37.00;;;29.23;32.18;97587.56;4955312;28;20046;-50
2023/06/26 10:20:09;;;;;;;10.05;6.95;;;28.70;35.90;;;29.37;32.53;97607.78;4931433;29;20047;-50
2023/06/26 10:22:46;;;;;;;6.93;6.22;;;28.70;36.80;;;29.34;33.17;97583.66;4940132;29;20062;-50
2023/06/26 10:25:22;;;;;;;7.93;6.22;;;28.70;37.70;;;29.35;32.93;97596.28;4939756;28;20231;-51